sensor_id;sensor_type;location;lat;lon;timestamp;pressure;altitude;pressure_sealevel;temperature;humidity
28000;BME280;15328;50.860;10.562;2023-03-13T00:00:09;95651.13;;;7.19;69.16
28000;BME280;15328;50.860;10.562;2023-03-13T00:05:11;95634.25;;;7.20;69.39
28000;BME280;15328;50.860;10.562;2023-03-13T00:10:11;95635.84;;;7.21;69.31
28000;BME280;15328;50.860;10.562;2023-03-13T00:15:12;95631.22;;;7.16;69.95
28000;BME280;15328;50.860;10.562;2023-03-13T00:20:12;95636.44;;;7.23;70.42
28000;BME280;15328;50.860;10.562;2023-03-13T00:25:13;95627.28;;;7.25;70.11
28000;BME280;15328;50.860;10.562;2023-03-13T00:30:13;95616.78;;;7.37;69.60
28000;BME280;15328;50.860;10.562;2023-03-13T00:35:14;95615.22;;;7.29;70.21
28000;BME280;15328;50.860;10.562;2023-03-13T00:40:15;95602.97;;;7.35;70.01
28000;BME280;15328;50.860;10.562;2023-03-13T00:45:15;95598.22;;;7.19;70.56
28000;BME280;15328;50.860;10.562;2023-03-13T00:50:15;95594.16;;;7.41;69.65
28000;BME280;15328;50.860;10.562;2023-03-13T00:55:16;95587.31;;;7.08;70.67
28000;BME280;15328;50.860;10.562;2023-03-13T01:00:16;95599.84;;;7.20;70.28
28000;BME280;15328;50.860;10.562;2023-03-13T01:05:17;95602.06;;;6.98;71.20
28000;BME280;15328;50.860;10.562;2023-03-13T01:10:17;95597.72;;;7.28;69.96
28000;BME280;15328;50.860;10.562;2023-03-13T01:15:17;95601.69;;;7.19;70.96
28000;BME280;15328;50.860;10.562;2023-03-13T01:20:18;95600.28;;;7.41;69.94
28000;BME280;15328;50.860;10.562;2023-03-13T01:25:19;95591.69;;;7.46;69.73
28000;BME280;15328;50.860;10.562;2023-03-13T01:30:19;95587.34;;;7.52;69.27
28000;BME280;15328;50.860;10.562;2023-03-13T01:35:19;95574.84;;;7.40;70.52
28000;BME280;15328;50.860;10.562;2023-03-13T01:40:21;95563.06;;;7.36;70.52
28000;BME280;15328;50.860;10.562;2023-03-13T01:50:55;95537.63;;;7.35;70.34
28000;BME280;15328;50.860;10.562;2023-03-13T01:55:58;95536.03;;;7.53;70.18
28000;BME280;15328;50.860;10.562;2023-03-13T02:01:00;95533.22;;;7.29;71.34
28000;BME280;15328;50.860;10.562;2023-03-13T02:06:01;95527.84;;;7.18;72.30
28000;BME280;15328;50.860;10.562;2023-03-13T02:16:07;95521.91;;;7.59;69.95
28000;BME280;15328;50.860;10.562;2023-03-13T02:26:41;95505.53;;;7.50;70.04
28000;BME280;15328;50.860;10.562;2023-03-13T02:31:41;95498.84;;;7.48;70.24
28000;BME280;15328;50.860;10.562;2023-03-13T02:36:43;95495.28;;;7.35;70.66
28000;BME280;15328;50.860;10.562;2023-03-13T02:41:45;95494.25;;;7.18;71.34
28000;BME280;15328;50.860;10.562;2023-03-13T02:46:48;95483.84;;;7.41;70.57
28000;BME280;15328;50.860;10.562;2023-03-13T02:51:54;95492.50;;;7.49;70.34
28000;BME280;15328;50.860;10.562;2023-03-13T02:56:57;95498.38;;;7.32;70.84
28000;BME280;15328;50.860;10.562;2023-03-13T03:01:59;95479.63;;;7.34;70.93
28000;BME280;15328;50.860;10.562;2023-03-13T03:07:00;95473.84;;;7.43;70.02
28000;BME280;15328;50.860;10.562;2023-03-13T03:12:00;95452.91;;;7.42;70.43
28000;BME280;15328;50.860;10.562;2023-03-13T03:17:00;95451.88;;;7.43;70.66
28000;BME280;15328;50.860;10.562;2023-03-13T03:22:01;95437.66;;;7.37;71.34
28000;BME280;15328;50.860;10.562;2023-03-13T03:27:01;95436.34;;;7.47;70.89
28000;BME280;15328;50.860;10.562;2023-03-13T03:32:02;95431.19;;;7.52;70.56
28000;BME280;15328;50.860;10.562;2023-03-13T03:37:02;95428.47;;;7.58;70.18
28000;BME280;15328;50.860;10.562;2023-03-13T03:42:03;95397.34;;;7.72;69.85
28000;BME280;15328;50.860;10.562;2023-03-13T03:47:05;95393.44;;;7.74;69.54
28000;BME280;15328;50.860;10.562;2023-03-13T03:52:05;95377.09;;;7.78;69.76
28000;BME280;15328;50.860;10.562;2023-03-13T03:57:06;95365.38;;;7.85;69.12
28000;BME280;15328;50.860;10.562;2023-03-13T04:02:06;95348.44;;;7.74;69.64
28000;BME280;15328;50.860;10.562;2023-03-13T04:07:06;95323.25;;;7.84;69.41
28000;BME280;15328;50.860;10.562;2023-03-13T04:12:07;95312.31;;;7.80;69.77
28000;BME280;15328;50.860;10.562;2023-03-13T04:17:08;95311.97;;;7.88;69.62
28000;BME280;15328;50.860;10.562;2023-03-13T04:22:08;95304.63;;;8.02;69.47
28000;BME280;15328;50.860;10.562;2023-03-13T04:27:08;95292.84;;;7.86;70.45
28000;BME280;15328;50.860;10.562;2023-03-13T04:32:09;95270.31;;;7.95;70.18
28000;BME280;15328;50.860;10.562;2023-03-13T04:37:09;95271.47;;;7.99;70.73
28000;BME280;15328;50.860;10.562;2023-03-13T04:42:11;95263.88;;;8.03;70.77
28000;BME280;15328;50.860;10.562;2023-03-13T04:47:11;95232.53;;;8.12;70.60
28000;BME280;15328;50.860;10.562;2023-03-13T04:52:12;95211.03;;;7.96;70.86
28000;BME280;15328;50.860;10.562;2023-03-13T04:57:12;95202.50;;;7.94;71.67
28000;BME280;15328;50.860;10.562;2023-03-13T05:02:12;95195.34;;;7.83;72.89
28000;BME280;15328;50.860;10.562;2023-03-13T05:07:13;95191.09;;;7.70;73.60
28000;BME280;15328;50.860;10.562;2023-03-13T05:12:13;95157.81;;;7.63;74.26
28000;BME280;15328;50.860;10.562;2023-03-13T05:17:14;95143.91;;;7.56;75.33
28000;BME280;15328;50.860;10.562;2023-03-13T05:22:14;95129.03;;;7.66;74.77
28000;BME280;15328;50.860;10.562;2023-03-13T05:27:14;95145.41;;;7.52;76.52
28000;BME280;15328;50.860;10.562;2023-03-13T05:32:15;95139.88;;;7.65;75.57
28000;BME280;15328;50.860;10.562;2023-03-13T05:37:15;95137.69;;;7.62;76.59
28000;BME280;15328;50.860;10.562;2023-03-13T05:42:15;95135.50;;;7.70;76.52
28000;BME280;15328;50.860;10.562;2023-03-13T05:47:16;95136.53;;;7.58;77.23
28000;BME280;15328;50.860;10.562;2023-03-13T05:52:17;95122.84;;;7.72;77.10
28000;BME280;15328;50.860;10.562;2023-03-13T05:57:18;95112.59;;;7.76;76.85
28000;BME280;15328;50.860;10.562;2023-03-13T06:02:18;95097.50;;;7.65;78.34
28000;BME280;15328;50.860;10.562;2023-03-13T06:07:19;95089.09;;;7.80;77.83
28000;BME280;15328;50.860;10.562;2023-03-13T06:12:20;95085.56;;;7.62;79.75
28000;BME280;15328;50.860;10.562;2023-03-13T06:17:20;95085.56;;;7.74;79.60
28000;BME280;15328;50.860;10.562;2023-03-13T06:22:20;95093.28;;;7.52;80.46
28000;BME280;15328;50.860;10.562;2023-03-13T06:27:21;95095.34;;;7.73;78.96
28000;BME280;15328;50.860;10.562;2023-03-13T06:32:21;95085.09;;;7.65;80.79
28000;BME280;15328;50.860;10.562;2023-03-13T06:37:22;95110.88;;;7.70;80.63
28000;BME280;15328;50.860;10.562;2023-03-13T06:42:22;95121.78;;;7.62;80.97
28000;BME280;15328;50.860;10.562;2023-03-13T06:47:22;95122.34;;;7.99;79.31
28000;BME280;15328;50.860;10.562;2023-03-13T06:52:23;95124.44;;;7.97;79.90
28000;BME280;15328;50.860;10.562;2023-03-13T06:57:23;95117.16;;;7.92;80.67
28000;BME280;15328;50.860;10.562;2023-03-13T07:02:24;95128.06;;;8.19;79.37
28000;BME280;15328;50.860;10.562;2023-03-13T07:07:24;95131.91;;;7.88;81.03
28000;BME280;15328;50.860;10.562;2023-03-13T07:12:25;95104.25;;;8.07;80.62
28000;BME280;15328;50.860;10.562;2023-03-13T07:17:25;95082.56;;;8.22;79.67
28000;BME280;15328;50.860;10.562;2023-03-13T07:22:26;95135.78;;;8.21;80.38
28000;BME280;15328;50.860;10.562;2023-03-13T07:27:26;95124.47;;;8.37;79.81
28000;BME280;15328;50.860;10.562;2023-03-13T07:32:30;95129.72;;;8.49;78.75
28000;BME280;15328;50.860;10.562;2023-03-13T07:37:31;95112.94;;;8.43;79.98
28000;BME280;15328;50.860;10.562;2023-03-13T07:42:31;95133.06;;;8.56;79.57
28000;BME280;15328;50.860;10.562;2023-03-13T07:47:34;95096.31;;;8.48;80.54
28000;BME280;15328;50.860;10.562;2023-03-13T07:52:35;95111.53;;;8.81;78.55
28000;BME280;15328;50.860;10.562;2023-03-13T07:57:35;95123.06;;;8.75;80.03
28000;BME280;15328;50.860;10.562;2023-03-13T08:02:35;95111.94;;;8.89;79.66
28000;BME280;15328;50.860;10.562;2023-03-13T08:07:36;95112.56;;;8.80;81.28
28000;BME280;15328;50.860;10.562;2023-03-13T08:12:36;95102.13;;;8.90;80.69
28000;BME280;15328;50.860;10.562;2023-03-13T08:17:36;95109.41;;;9.11;80.11
28000;BME280;15328;50.860;10.562;2023-03-13T08:22:37;95132.31;;;9.17;79.49
28000;BME280;15328;50.860;10.562;2023-03-13T08:27:37;95127.63;;;9.24;79.58
28000;BME280;15328;50.860;10.562;2023-03-13T08:32:37;95121.22;;;9.37;79.31
28000;BME280;15328;50.860;10.562;2023-03-13T08:37:38;95091.44;;;9.52;79.47
28000;BME280;15328;50.860;10.562;2023-03-13T08:42:38;95110.75;;;9.64;79.28
28000;BME280;15328;50.860;10.562;2023-03-13T08:47:39;95094.88;;;9.69;79.01
28000;BME280;15328;50.860;10.562;2023-03-13T08:52:43;95101.56;;;9.55;79.18
28000;BME280;15328;50.860;10.562;2023-03-13T08:57:43;95122.63;;;9.78;78.79
28000;BME280;15328;50.860;10.562;2023-03-13T09:02:44;95110.94;;;9.79;78.21
28000;BME280;15328;50.860;10.562;2023-03-13T09:07:44;95131.31;;;9.74;79.05
28000;BME280;15328;50.860;10.562;2023-03-13T09:12:44;95135.72;;;9.85;78.61
28000;BME280;15328;50.860;10.562;2023-03-13T09:17:46;95149.91;;;9.90;78.74
28000;BME280;15328;50.860;10.562;2023-03-13T09:22:46;95149.53;;;10.04;78.38
28000;BME280;15328;50.860;10.562;2023-03-13T09:27:47;95133.59;;;10.04;79.91
28000;BME280;15328;50.860;10.562;2023-03-13T09:32:47;95130.34;;;10.18;80.09
28000;BME280;15328;50.860;10.562;2023-03-13T09:37:48;95099.53;;;10.39;79.16
28000;BME280;15328;50.860;10.562;2023-03-13T09:42:59;95101.31;;;10.56;80.14
28000;BME280;15328;50.860;10.562;2023-03-13T09:48:28;95081.59;;;10.78;79.52
28000;BME280;15328;50.860;10.562;2023-03-13T09:53:35;95090.34;;;11.01;80.11
28000;BME280;15328;50.860;10.562;2023-03-13T09:58:46;95089.69;;;11.21;79.28
28000;BME280;15328;50.860;10.562;2023-03-13T10:03:57;95067.88;;;11.56;78.75
28000;BME280;15328;50.860;10.562;2023-03-13T10:09:00;95034.66;;;12.21;76.93
28000;BME280;15328;50.860;10.562;2023-03-13T10:19:37;95039.13;;;13.34;69.42
28000;BME280;15328;50.860;10.562;2023-03-13T10:24:48;95001.38;;;13.76;68.84
28000;BME280;15328;50.860;10.562;2023-03-13T10:29:50;95035.44;;;14.19;66.06
28000;BME280;15328;50.860;10.562;2023-03-13T10:34:57;95027.28;;;14.50;64.74
28000;BME280;15328;50.860;10.562;2023-03-13T10:40:30;95019.25;;;14.55;63.73
28000;BME280;15328;50.860;10.562;2023-03-13T10:45:35;95024.34;;;14.96;62.82
28000;BME280;15328;50.860;10.562;2023-03-13T10:50:41;95004.53;;;14.97;61.42
28000;BME280;15328;50.860;10.562;2023-03-13T10:55:43;94986.47;;;15.41;60.35
28000;BME280;15328;50.860;10.562;2023-03-13T11:00:43;95011.00;;;15.54;59.45
28000;BME280;15328;50.860;10.562;2023-03-13T11:05:53;95026.03;;;15.50;57.70
28000;BME280;15328;50.860;10.562;2023-03-13T11:10:59;95032.94;;;15.27;58.60
28000;BME280;15328;50.860;10.562;2023-03-13T11:16:22;95035.13;;;14.86;59.50
28000;BME280;15328;50.860;10.562;2023-03-13T11:21:55;95024.13;;;14.38;60.84
28000;BME280;15328;50.860;10.562;2023-03-13T11:26:55;95008.94;;;14.28;61.16
28000;BME280;15328;50.860;10.562;2023-03-13T11:32:09;95012.78;;;14.02;62.40
28000;BME280;15328;50.860;10.562;2023-03-13T11:37:15;95010.16;;;13.86;62.91
28000;BME280;15328;50.860;10.562;2023-03-13T11:47:56;94999.16;;;14.03;62.89
28000;BME280;15328;50.860;10.562;2023-03-13T11:53:21;94990.84;;;14.05;62.68
28000;BME280;15328;50.860;10.562;2023-03-13T12:08:54;94967.09;;;13.93;63.70
28000;BME280;15328;50.860;10.562;2023-03-13T12:14:21;94964.47;;;13.83;63.51
28000;BME280;15328;50.860;10.562;2023-03-13T12:24:51;94972.97;;;14.00;63.74
28000;BME280;15328;50.860;10.562;2023-03-13T12:30:04;94955.97;;;13.71;64.59
28000;BME280;15328;50.860;10.562;2023-03-13T12:45:20;94977.69;;;13.34;66.55
28000;BME280;15328;50.860;10.562;2023-03-13T13:00:40;94926.16;;;13.33;66.88
28000;BME280;15328;50.860;10.562;2023-03-13T13:06:04;94938.94;;;13.46;66.87
28000;BME280;15328;50.860;10.562;2023-03-13T13:11:37;94920.50;;;13.40;66.79
28000;BME280;15328;50.860;10.562;2023-03-13T13:16:45;94910.41;;;13.32;67.70
28000;BME280;15328;50.860;10.562;2023-03-13T13:21:46;94904.56;;;13.24;67.94
28000;BME280;15328;50.860;10.562;2023-03-13T13:26:48;94897.84;;;13.32;67.27
28000;BME280;15328;50.860;10.562;2023-03-13T13:36:50;94905.59;;;13.28;67.80
28000;BME280;15328;50.860;10.562;2023-03-13T13:41:50;94918.97;;;13.08;68.67
28000;BME280;15328;50.860;10.562;2023-03-13T13:46:52;94909.34;;;13.12;68.88
28000;BME280;15328;50.860;10.562;2023-03-13T13:57:09;94898.66;;;13.07;69.45
28000;BME280;15328;50.860;10.562;2023-03-13T14:02:18;94897.38;;;12.89;70.07
28000;BME280;15328;50.860;10.562;2023-03-13T14:12:38;94909.38;;;12.77;71.43
28000;BME280;15328;50.860;10.562;2023-03-13T14:17:45;94900.56;;;12.81;70.97
28000;BME280;15328;50.860;10.562;2023-03-13T14:22:49;94890.44;;;12.88;70.15
28000;BME280;15328;50.860;10.562;2023-03-13T14:27:51;94906.97;;;12.85;71.19
28000;BME280;15328;50.860;10.562;2023-03-13T14:32:52;94893.09;;;12.83;70.84
28000;BME280;15328;50.860;10.562;2023-03-13T14:38:00;94892.03;;;12.74;71.71
28000;BME280;15328;50.860;10.562;2023-03-13T14:43:02;94881.88;;;12.86;71.43
28000;BME280;15328;50.860;10.562;2023-03-13T14:48:18;94868.28;;;12.83;72.12
28000;BME280;15328;50.860;10.562;2023-03-13T14:53:21;94876.00;;;12.84;72.01
28000;BME280;15328;50.860;10.562;2023-03-13T14:58:29;94862.97;;;12.88;71.71
28000;BME280;15328;50.860;10.562;2023-03-13T15:03:31;94844.28;;;12.83;71.83
28000;BME280;15328;50.860;10.562;2023-03-13T15:08:33;94856.00;;;12.82;72.57
28000;BME280;15328;50.860;10.562;2023-03-13T15:13:35;94825.06;;;12.91;72.09
28000;BME280;15328;50.860;10.562;2023-03-13T15:18:36;94819.19;;;12.89;72.47
28000;BME280;15328;50.860;10.562;2023-03-13T15:23:36;94806.09;;;12.92;71.97
28000;BME280;15328;50.860;10.562;2023-03-13T15:28:37;94785.56;;;12.93;71.70
28000;BME280;15328;50.860;10.562;2023-03-13T15:33:38;94780.47;;;12.96;71.59
28000;BME280;15328;50.860;10.562;2023-03-13T15:38:39;94746.84;;;12.95;71.45
28000;BME280;15328;50.860;10.562;2023-03-13T15:43:39;94740.16;;;12.98;71.81
28000;BME280;15328;50.860;10.562;2023-03-13T15:48:40;94727.38;;;12.95;71.34
28000;BME280;15328;50.860;10.562;2023-03-13T15:53:42;94717.53;;;12.80;72.81
28000;BME280;15328;50.860;10.562;2023-03-13T15:58:45;94721.28;;;12.79;73.34
28000;BME280;15328;50.860;10.562;2023-03-13T16:03:45;94715.66;;;12.81;73.63
28000;BME280;15328;50.860;10.562;2023-03-13T16:08:46;94703.38;;;12.90;73.07
28000;BME280;15328;50.860;10.562;2023-03-13T16:13:46;94739.13;;;12.84;73.90
28000;BME280;15328;50.860;10.562;2023-03-13T16:18:48;94668.44;;;12.81;74.35
28000;BME280;15328;50.860;10.562;2023-03-13T16:23:49;94717.53;;;12.80;74.37
28000;BME280;15328;50.860;10.562;2023-03-13T16:28:50;94729.03;;;12.76;75.17
28000;BME280;15328;50.860;10.562;2023-03-13T16:33:51;94748.53;;;12.66;76.50
28000;BME280;15328;50.860;10.562;2023-03-13T16:38:53;94738.94;;;12.70;75.94
28000;BME280;15328;50.860;10.562;2023-03-13T16:43:54;94780.53;;;12.76;75.28
28000;BME280;15328;50.860;10.562;2023-03-13T16:48:54;94722.06;;;12.85;75.31
28000;BME280;15328;50.860;10.562;2023-03-13T16:53:58;94642.53;;;12.87;74.51
28000;BME280;15328;50.860;10.562;2023-03-13T16:59:10;94698.59;;;12.82;75.16
28000;BME280;15328;50.860;10.562;2023-03-13T17:04:11;94685.53;;;12.80;74.67
28000;BME280;15328;50.860;10.562;2023-03-13T17:09:16;94693.28;;;12.77;74.65
28000;BME280;15328;50.860;10.562;2023-03-13T17:14:16;94693.56;;;12.70;74.15
28000;BME280;15328;50.860;10.562;2023-03-13T17:19:17;94652.06;;;12.38;73.24
28000;BME280;15328;50.860;10.562;2023-03-13T17:24:17;94655.81;;;12.37;73.21
28000;BME280;15328;50.860;10.562;2023-03-13T17:29:18;94629.50;;;12.05;74.05
28000;BME280;15328;50.860;10.562;2023-03-13T17:34:18;94599.69;;;11.93;74.17
28000;BME280;15328;50.860;10.562;2023-03-13T17:39:19;94591.97;;;11.87;74.29
28000;BME280;15328;50.860;10.562;2023-03-13T17:44:20;94611.97;;;11.59;75.37
28000;BME280;15328;50.860;10.562;2023-03-13T17:49:21;94611.94;;;11.69;74.89
28000;BME280;15328;50.860;10.562;2023-03-13T17:54:21;94598.34;;;11.75;74.15
28000;BME280;15328;50.860;10.562;2023-03-13T17:59:21;94612.50;;;11.61;75.25
28000;BME280;15328;50.860;10.562;2023-03-13T18:04:22;94607.97;;;11.56;75.01
28000;BME280;15328;50.860;10.562;2023-03-13T18:09:22;94603.19;;;11.53;75.00
28000;BME280;15328;50.860;10.562;2023-03-13T18:14:22;94616.22;;;11.44;75.08
28000;BME280;15328;50.860;10.562;2023-03-13T18:19:24;94617.56;;;11.57;74.63
28000;BME280;15328;50.860;10.562;2023-03-13T18:24:24;94602.38;;;11.58;74.18
28000;BME280;15328;50.860;10.562;2023-03-13T18:29:25;94611.97;;;11.54;73.01
28000;BME280;15328;50.860;10.562;2023-03-13T18:34:26;94597.31;;;11.41;73.46
28000;BME280;15328;50.860;10.562;2023-03-13T18:39:26;94609.56;;;11.57;72.79
28000;BME280;15328;50.860;10.562;2023-03-13T18:44:27;94582.94;;;11.52;72.36
28000;BME280;15328;50.860;10.562;2023-03-13T18:49:27;94586.38;;;11.63;71.84
28000;BME280;15328;50.860;10.562;2023-03-13T18:54:28;94559.50;;;11.39;72.65
28000;BME280;15328;50.860;10.562;2023-03-13T18:59:29;94527.81;;;11.63;71.64
28000;BME280;15328;50.860;10.562;2023-03-13T19:04:29;94525.41;;;11.61;71.73
28000;BME280;15328;50.860;10.562;2023-03-13T19:09:30;94492.94;;;11.49;71.63
28000;BME280;15328;50.860;10.562;2023-03-13T19:14:30;94496.41;;;11.55;71.31
28000;BME280;15328;50.860;10.562;2023-03-13T19:19:30;94507.84;;;11.50;71.50
28000;BME280;15328;50.860;10.562;2023-03-13T19:24:31;94494.59;;;11.30;72.34
28000;BME280;15328;50.860;10.562;2023-03-13T19:29:31;94495.66;;;11.29;71.72
28000;BME280;15328;50.860;10.562;2023-03-13T19:34:35;94478.84;;;11.43;71.18
28000;BME280;15328;50.860;10.562;2023-03-13T19:39:35;94486.59;;;11.35;71.52
28000;BME280;15328;50.860;10.562;2023-03-13T19:44:36;94483.34;;;11.48;71.29
28000;BME280;15328;50.860;10.562;2023-03-13T19:49:37;94502.50;;;11.60;70.21
28000;BME280;15328;50.860;10.562;2023-03-13T19:54:37;94510.78;;;11.59;70.62
28000;BME280;15328;50.860;10.562;2023-03-13T19:59:37;94559.75;;;11.68;70.09
28000;BME280;15328;50.860;10.562;2023-03-13T20:04:39;94571.19;;;11.73;70.11
28000;BME280;15328;50.860;10.562;2023-03-13T20:09:41;94591.72;;;11.63;71.13
28000;BME280;15328;50.860;10.562;2023-03-13T20:14:41;94596.78;;;11.49;71.66
28000;BME280;15328;50.860;10.562;2023-03-13T20:19:41;94593.56;;;11.67;71.41
28000;BME280;15328;50.860;10.562;2023-03-13T20:24:42;94588.25;;;11.57;71.73
28000;BME280;15328;50.860;10.562;2023-03-13T20:29:42;94589.59;;;11.44;71.25
28000;BME280;15328;50.860;10.562;2023-03-13T20:34:43;94593.06;;;11.60;69.60
28000;BME280;15328;50.860;10.562;2023-03-13T20:39:43;94593.31;;;11.59;69.01
28000;BME280;15328;50.860;10.562;2023-03-13T20:44:43;94593.03;;;11.50;69.28
28000;BME280;15328;50.860;10.562;2023-03-13T20:49:44;94595.19;;;11.53;68.93
28000;BME280;15328;50.860;10.562;2023-03-13T20:54:45;94578.66;;;11.61;68.80
28000;BME280;15328;50.860;10.562;2023-03-13T20:59:45;94517.19;;;11.53;68.92
28000;BME280;15328;50.860;10.562;2023-03-13T21:04:45;94467.63;;;11.57;68.87
28000;BME280;15328;50.860;10.562;2023-03-13T21:09:46;94421.06;;;11.54;68.81
28000;BME280;15328;50.860;10.562;2023-03-13T21:14:46;94411.50;;;11.43;68.59
28000;BME280;15328;50.860;10.562;2023-03-13T21:19:48;94409.16;;;11.26;68.59
28000;BME280;15328;50.860;10.562;2023-03-13T21:24:49;94378.31;;;11.15;68.11
28000;BME280;15328;50.860;10.562;2023-03-13T21:29:49;94401.50;;;10.94;68.72
28000;BME280;15328;50.860;10.562;2023-03-13T21:34:50;94417.19;;;11.06;67.56
28000;BME280;15328;50.860;10.562;2023-03-13T21:39:51;94413.72;;;11.05;66.87
28000;BME280;15328;50.860;10.562;2023-03-13T21:44:52;94418.78;;;11.07;66.57
28000;BME280;15328;50.860;10.562;2023-03-13T21:49:53;94380.22;;;10.94;67.25
28000;BME280;15328;50.860;10.562;2023-03-13T21:54:54;94382.34;;;10.92;67.40
28000;BME280;15328;50.860;10.562;2023-03-13T21:59:54;94399.38;;;10.66;67.86
28000;BME280;15328;50.860;10.562;2023-03-13T22:04:55;94420.66;;;10.66;68.06
28000;BME280;15328;50.860;10.562;2023-03-13T22:09:56;94416.41;;;10.65;68.06
28000;BME280;15328;50.860;10.562;2023-03-13T22:14:56;94407.38;;;10.66;68.50
28000;BME280;15328;50.860;10.562;2023-03-13T22:19:56;94395.13;;;10.65;68.64
28000;BME280;15328;50.860;10.562;2023-03-13T22:24:57;94398.06;;;10.53;69.69
28000;BME280;15328;50.860;10.562;2023-03-13T22:29:57;94394.34;;;10.64;69.44
28000;BME280;15328;50.860;10.562;2023-03-13T22:34:58;94398.59;;;10.55;69.96
28000;BME280;15328;50.860;10.562;2023-03-13T22:39:58;94440.88;;;10.51;69.51
28000;BME280;15328;50.860;10.562;2023-03-13T22:44:59;94439.03;;;10.52;71.05
28000;BME280;15328;50.860;10.562;2023-03-13T22:49:59;94444.59;;;10.50;71.24
28000;BME280;15328;50.860;10.562;2023-03-13T22:54:59;94421.75;;;10.49;71.51
28000;BME280;15328;50.860;10.562;2023-03-13T23:00:00;94409.53;;;10.43;72.80
28000;BME280;15328;50.860;10.562;2023-03-13T23:05:00;94417.22;;;10.50;72.07
28000;BME280;15328;50.860;10.562;2023-03-13T23:10:00;94384.53;;;10.49;72.41
28000;BME280;15328;50.860;10.562;2023-03-13T23:15:01;94367.25;;;10.42;73.01
28000;BME280;15328;50.860;10.562;2023-03-13T23:20:03;94352.09;;;10.32;73.91
28000;BME280;15328;50.860;10.562;2023-03-13T23:25:12;94352.34;;;10.31;72.83
28000;BME280;15328;50.860;10.562;2023-03-13T23:30:15;94390.34;;;10.21;73.79
28000;BME280;15328;50.860;10.562;2023-03-13T23:35:15;94347.78;;;10.11;73.51
28000;BME280;15328;50.860;10.562;2023-03-13T23:40:16;94369.09;;;10.36;72.67
28000;BME280;15328;50.860;10.562;2023-03-13T23:45:17;94350.22;;;10.38;71.87
28000;BME280;15328;50.860;10.562;2023-03-13T23:50:18;94335.88;;;10.29;72.18
28000;BME280;15328;50.860;10.562;2023-03-13T23:55:18;94316.50;;;10.23;72.27
